sensor_id;sensor_type;location;lat;lon;timestamp;P1;durP1;ratioP1;P2;durP2;ratioP2
45676;SDS011;31390;51.186;6.830;2022-12-07T00:01:15;137.53;;;82.73;;
45676;SDS011;31390;51.186;6.830;2022-12-07T00:03:43;118.93;;;71.40;;
45676;SDS011;31390;51.186;6.830;2022-12-07T00:06:11;147.93;;;83.00;;
45676;SDS011;31390;51.186;6.830;2022-12-07T00:08:37;174.23;;;89.43;;
45676;SDS011;31390;51.186;6.830;2022-12-07T00:11:08;218.53;;;102.17;;
45676;SDS011;31390;51.186;6.830;2022-12-07T00:13:35;153.77;;;83.03;;
45676;SDS011;31390;51.186;6.830;2022-12-07T00:16:03;163.50;;;88.10;;
45676;SDS011;31390;51.186;6.830;2022-12-07T00:18:30;159.93;;;86.07;;
45676;SDS011;31390;51.186;6.830;2022-12-07T00:21:04;207.17;;;100.17;;
45676;SDS011;31390;51.186;6.830;2022-12-07T00:23:31;250.33;;;114.27;;
45676;SDS011;31390;51.186;6.830;2022-12-07T00:26:02;295.13;;;121.40;;
45676;SDS011;31390;51.186;6.830;2022-12-07T00:28:29;207.70;;;101.63;;
45676;SDS011;31390;51.186;6.830;2022-12-07T00:31:02;340.43;;;138.63;;
45676;SDS011;31390;51.186;6.830;2022-12-07T00:33:29;132.00;;;77.87;;
45676;SDS011;31390;51.186;6.830;2022-12-07T00:35:56;153.40;;;89.20;;
45676;SDS011;31390;51.186;6.830;2022-12-07T00:38:23;247.70;;;113.57;;
45676;SDS011;31390;51.186;6.830;2022-12-07T00:40:54;242.17;;;113.70;;
45676;SDS011;31390;51.186;6.830;2022-12-07T00:43:20;189.50;;;96.07;;
45676;SDS011;31390;51.186;6.830;2022-12-07T00:45:47;218.67;;;107.57;;
45676;SDS011;31390;51.186;6.830;2022-12-07T00:48:13;246.50;;;111.37;;
45676;SDS011;31390;51.186;6.830;2022-12-07T00:50:40;233.57;;;109.57;;
45676;SDS011;31390;51.186;6.830;2022-12-07T00:53:06;357.33;;;143.73;;
45676;SDS011;31390;51.186;6.830;2022-12-07T00:55:33;164.57;;;89.87;;
45676;SDS011;31390;51.186;6.830;2022-12-07T00:57:59;200.77;;;105.93;;
45676;SDS011;31390;51.186;6.830;2022-12-07T01:00:26;197.10;;;99.27;;
45676;SDS011;31390;51.186;6.830;2022-12-07T01:02:52;173.90;;;95.03;;
45676;SDS011;31390;51.186;6.830;2022-12-07T01:05:19;161.43;;;94.27;;
45676;SDS011;31390;51.186;6.830;2022-12-07T01:07:45;194.00;;;103.10;;
45676;SDS011;31390;51.186;6.830;2022-12-07T01:10:13;201.70;;;101.97;;
45676;SDS011;31390;51.186;6.830;2022-12-07T01:12:40;188.27;;;102.30;;
45676;SDS011;31390;51.186;6.830;2022-12-07T01:15:07;146.03;;;85.43;;
45676;SDS011;31390;51.186;6.830;2022-12-07T01:17:34;113.37;;;77.37;;
45676;SDS011;31390;51.186;6.830;2022-12-07T01:20:01;194.33;;;101.10;;
45676;SDS011;31390;51.186;6.830;2022-12-07T01:22:43;229.42;;;106.89;;
45676;SDS011;31390;51.186;6.830;2022-12-07T01:25:10;179.57;;;94.90;;
45676;SDS011;31390;51.186;6.830;2022-12-07T01:27:37;182.67;;;96.57;;
45676;SDS011;31390;51.186;6.830;2022-12-07T01:30:04;109.00;;;74.13;;
45676;SDS011;31390;51.186;6.830;2022-12-07T01:32:32;181.63;;;97.07;;
45676;SDS011;31390;51.186;6.830;2022-12-07T01:34:59;150.40;;;88.20;;
45676;SDS011;31390;51.186;6.830;2022-12-07T01:37:25;195.50;;;105.20;;
45676;SDS011;31390;51.186;6.830;2022-12-07T01:39:52;142.60;;;87.27;;
45676;SDS011;31390;51.186;6.830;2022-12-07T01:42:22;182.27;;;97.30;;
45676;SDS011;31390;51.186;6.830;2022-12-07T01:47:34;184.67;;;95.30;;
45676;SDS011;31390;51.186;6.830;2022-12-07T01:50:00;190.03;;;98.50;;
45676;SDS011;31390;51.186;6.830;2022-12-07T01:52:28;154.23;;;91.20;;
45676;SDS011;31390;51.186;6.830;2022-12-07T01:54:57;224.67;;;112.17;;
45676;SDS011;31390;51.186;6.830;2022-12-07T01:57:24;103.00;;;71.87;;
45676;SDS011;31390;51.186;6.830;2022-12-07T01:59:51;176.60;;;99.60;;
45676;SDS011;31390;51.186;6.830;2022-12-07T02:02:19;96.33;;;65.97;;
45676;SDS011;31390;51.186;6.830;2022-12-07T02:04:46;160.53;;;91.83;;
45676;SDS011;31390;51.186;6.830;2022-12-07T02:07:12;170.57;;;92.60;;
45676;SDS011;31390;51.186;6.830;2022-12-07T02:09:39;248.80;;;118.87;;
45676;SDS011;31390;51.186;6.830;2022-12-07T02:12:05;173.10;;;93.17;;
45676;SDS011;31390;51.186;6.830;2022-12-07T02:14:32;205.10;;;102.67;;
45676;SDS011;31390;51.186;6.830;2022-12-07T02:17:05;174.30;;;96.20;;
45676;SDS011;31390;51.186;6.830;2022-12-07T02:29:58;219.20;;;109.37;;
45676;SDS011;31390;51.186;6.830;2022-12-07T02:40:25;232.93;;;113.70;;
45676;SDS011;31390;51.186;6.830;2022-12-07T02:42:55;250.37;;;116.70;;
45676;SDS011;31390;51.186;6.830;2022-12-07T02:45:24;175.13;;;97.80;;
45676;SDS011;31390;51.186;6.830;2022-12-07T02:47:52;185.00;;;101.30;;
45676;SDS011;31390;51.186;6.830;2022-12-07T02:50:21;182.43;;;97.17;;
45676;SDS011;31390;51.186;6.830;2022-12-07T02:52:47;172.05;;;89.55;;
45676;SDS011;31390;51.186;6.830;2022-12-07T02:55:15;220.50;;;107.00;;
45676;SDS011;31390;51.186;6.830;2022-12-07T02:57:47;157.63;;;93.53;;
45676;SDS011;31390;51.186;6.830;2022-12-07T03:00:18;175.30;;;98.20;;
45676;SDS011;31390;51.186;6.830;2022-12-07T03:02:50;122.57;;;74.70;;
45676;SDS011;31390;51.186;6.830;2022-12-07T03:08:26;193.47;;;98.97;;
45676;SDS011;31390;51.186;6.830;2022-12-07T03:11:03;135.23;;;81.90;;
45676;SDS011;31390;51.186;6.830;2022-12-07T03:18:37;192.50;;;101.23;;
45676;SDS011;31390;51.186;6.830;2022-12-07T03:21:11;176.97;;;96.53;;
45676;SDS011;31390;51.186;6.830;2022-12-07T03:23:39;108.73;;;71.70;;
45676;SDS011;31390;51.186;6.830;2022-12-07T03:26:08;75.50;;;59.50;;
45676;SDS011;31390;51.186;6.830;2022-12-07T03:28:37;239.03;;;113.90;;
45676;SDS011;31390;51.186;6.830;2022-12-07T03:31:16;139.53;;;81.27;;
45676;SDS011;31390;51.186;6.830;2022-12-07T03:33:52;107.07;;;69.77;;
45676;SDS011;31390;51.186;6.830;2022-12-07T03:36:44;167.93;;;94.23;;
45676;SDS011;31390;51.186;6.830;2022-12-07T03:41:57;135.50;;;82.83;;
45676;SDS011;31390;51.186;6.830;2022-12-07T03:44:25;170.40;;;94.93;;
45676;SDS011;31390;51.186;6.830;2022-12-07T03:47:01;82.13;;;63.17;;
45676;SDS011;31390;51.186;6.830;2022-12-07T03:54:41;131.90;;;82.73;;
45676;SDS011;31390;51.186;6.830;2022-12-07T03:57:13;81.93;;;60.27;;
45676;SDS011;31390;51.186;6.830;2022-12-07T03:59:40;121.90;;;76.30;;
45676;SDS011;31390;51.186;6.830;2022-12-07T04:02:08;142.93;;;85.83;;
45676;SDS011;31390;51.186;6.830;2022-12-07T04:04:37;185.50;;;98.03;;
45676;SDS011;31390;51.186;6.830;2022-12-07T04:07:03;96.33;;;64.77;;
45676;SDS011;31390;51.186;6.830;2022-12-07T04:09:30;88.67;;;62.93;;
45676;SDS011;31390;51.186;6.830;2022-12-07T04:11:56;116.20;;;72.90;;
45676;SDS011;31390;51.186;6.830;2022-12-07T04:14:23;133.83;;;79.33;;
45676;SDS011;31390;51.186;6.830;2022-12-07T04:16:52;156.77;;;90.00;;
45676;SDS011;31390;51.186;6.830;2022-12-07T04:19:20;101.80;;;69.17;;
45676;SDS011;31390;51.186;6.830;2022-12-07T04:21:47;197.80;;;101.27;;
45676;SDS011;31390;51.186;6.830;2022-12-07T04:24:14;171.83;;;93.20;;
45676;SDS011;31390;51.186;6.830;2022-12-07T04:26:41;170.93;;;92.00;;
45676;SDS011;31390;51.186;6.830;2022-12-07T04:29:07;149.27;;;85.30;;
45676;SDS011;31390;51.186;6.830;2022-12-07T04:31:35;102.27;;;70.40;;
45676;SDS011;31390;51.186;6.830;2022-12-07T04:34:02;285.20;;;124.03;;
45676;SDS011;31390;51.186;6.830;2022-12-07T04:36:29;189.20;;;92.57;;
45676;SDS011;31390;51.186;6.830;2022-12-07T04:38:56;209.30;;;104.17;;
45676;SDS011;31390;51.186;6.830;2022-12-07T04:41:23;154.00;;;83.67;;
45676;SDS011;31390;51.186;6.830;2022-12-07T04:44:03;175.20;;;91.93;;
45676;SDS011;31390;51.186;6.830;2022-12-07T04:46:30;73.40;;;56.90;;
45676;SDS011;31390;51.186;6.830;2022-12-07T04:48:57;181.60;;;89.30;;
45676;SDS011;31390;51.186;6.830;2022-12-07T04:51:27;263.50;;;112.63;;
45676;SDS011;31390;51.186;6.830;2022-12-07T04:53:54;132.33;;;75.53;;
45676;SDS011;31390;51.186;6.830;2022-12-07T04:56:22;134.20;;;74.50;;
45676;SDS011;31390;51.186;6.830;2022-12-07T04:58:49;122.70;;;72.40;;
45676;SDS011;31390;51.186;6.830;2022-12-07T05:01:16;154.10;;;82.13;;
45676;SDS011;31390;51.186;6.830;2022-12-07T05:03:43;95.93;;;62.67;;
45676;SDS011;31390;51.186;6.830;2022-12-07T05:06:09;165.63;;;84.87;;
45676;SDS011;31390;51.186;6.830;2022-12-07T05:08:39;141.80;;;78.17;;
45676;SDS011;31390;51.186;6.830;2022-12-07T05:11:06;104.77;;;66.17;;
45676;SDS011;31390;51.186;6.830;2022-12-07T05:13:33;82.37;;;56.23;;
45676;SDS011;31390;51.186;6.830;2022-12-07T05:15:59;122.83;;;70.70;;
45676;SDS011;31390;51.186;6.830;2022-12-07T05:18:26;39.87;;;35.63;;
45676;SDS011;31390;51.186;6.830;2022-12-07T05:20:52;60.97;;;47.63;;
45676;SDS011;31390;51.186;6.830;2022-12-07T05:23:19;86.77;;;57.30;;
45676;SDS011;31390;51.186;6.830;2022-12-07T05:25:46;54.47;;;43.23;;
45676;SDS011;31390;51.186;6.830;2022-12-07T05:28:12;127.40;;;70.27;;
45676;SDS011;31390;51.186;6.830;2022-12-07T05:30:39;71.70;;;50.93;;
45676;SDS011;31390;51.186;6.830;2022-12-07T05:33:05;60.37;;;46.13;;
45676;SDS011;31390;51.186;6.830;2022-12-07T05:35:31;61.47;;;47.37;;
45676;SDS011;31390;51.186;6.830;2022-12-07T05:37:58;62.20;;;45.87;;
45676;SDS011;31390;51.186;6.830;2022-12-07T05:40:24;79.13;;;50.70;;
45676;SDS011;31390;51.186;6.830;2022-12-07T05:42:51;114.57;;;61.53;;
45676;SDS011;31390;51.186;6.830;2022-12-07T05:45:17;107.53;;;62.80;;
45676;SDS011;31390;51.186;6.830;2022-12-07T05:47:44;58.60;;;41.53;;
45676;SDS011;31390;51.186;6.830;2022-12-07T05:50:10;82.03;;;50.87;;
45676;SDS011;31390;51.186;6.830;2022-12-07T05:52:37;38.67;;;33.53;;
45676;SDS011;31390;51.186;6.830;2022-12-07T05:55:03;72.07;;;49.93;;
45676;SDS011;31390;51.186;6.830;2022-12-07T05:57:30;64.37;;;43.13;;
45676;SDS011;31390;51.186;6.830;2022-12-07T05:59:56;77.47;;;46.97;;
45676;SDS011;31390;51.186;6.830;2022-12-07T06:02:23;59.73;;;42.20;;
45676;SDS011;31390;51.186;6.830;2022-12-07T06:04:50;87.33;;;51.90;;
45676;SDS011;31390;51.186;6.830;2022-12-07T06:07:16;83.43;;;51.93;;
45676;SDS011;31390;51.186;6.830;2022-12-07T06:09:43;52.63;;;39.90;;
45676;SDS011;31390;51.186;6.830;2022-12-07T06:12:10;37.27;;;31.47;;
45676;SDS011;31390;51.186;6.830;2022-12-07T06:14:55;77.73;;;46.77;;
45676;SDS011;31390;51.186;6.830;2022-12-07T06:17:22;63.60;;;43.77;;
45676;SDS011;31390;51.186;6.830;2022-12-07T06:19:48;75.07;;;47.27;;
45676;SDS011;31390;51.186;6.830;2022-12-07T06:22:14;93.13;;;54.10;;
45676;SDS011;31390;51.186;6.830;2022-12-07T06:24:42;135.47;;;68.40;;
45676;SDS011;31390;51.186;6.830;2022-12-07T06:27:08;78.43;;;51.33;;
45676;SDS011;31390;51.186;6.830;2022-12-07T06:29:35;99.63;;;59.37;;
45676;SDS011;31390;51.186;6.830;2022-12-07T06:32:02;81.37;;;53.40;;
45676;SDS011;31390;51.186;6.830;2022-12-07T06:34:29;52.63;;;42.17;;
45676;SDS011;31390;51.186;6.830;2022-12-07T06:36:56;87.57;;;54.93;;
45676;SDS011;31390;51.186;6.830;2022-12-07T06:39:24;47.57;;;40.20;;
45676;SDS011;31390;51.186;6.830;2022-12-07T06:41:51;117.40;;;64.87;;
45676;SDS011;31390;51.186;6.830;2022-12-07T06:44:18;154.00;;;76.82;;
45676;SDS011;31390;51.186;6.830;2022-12-07T06:46:46;110.83;;;64.77;;
45676;SDS011;31390;51.186;6.830;2022-12-07T06:49:13;99.73;;;61.63;;
45676;SDS011;31390;51.186;6.830;2022-12-07T06:51:41;126.03;;;69.57;;
45676;SDS011;31390;51.186;6.830;2022-12-07T06:54:12;84.03;;;53.63;;
45676;SDS011;31390;51.186;6.830;2022-12-07T06:56:39;72.53;;;51.20;;
45676;SDS011;31390;51.186;6.830;2022-12-07T06:59:06;88.37;;;59.80;;
45676;SDS011;31390;51.186;6.830;2022-12-07T07:01:33;102.70;;;63.27;;
45676;SDS011;31390;51.186;6.830;2022-12-07T07:04:00;62.73;;;48.70;;
45676;SDS011;31390;51.186;6.830;2022-12-07T07:06:27;69.73;;;49.87;;
45676;SDS011;31390;51.186;6.830;2022-12-07T07:08:53;103.27;;;61.70;;
45676;SDS011;31390;51.186;6.830;2022-12-07T07:11:30;53.13;;;43.13;;
45676;SDS011;31390;51.186;6.830;2022-12-07T07:13:56;86.00;;;55.13;;
45676;SDS011;31390;51.186;6.830;2022-12-07T07:16:25;78.83;;;51.93;;
45676;SDS011;31390;51.186;6.830;2022-12-07T07:18:52;79.60;;;52.97;;
45676;SDS011;31390;51.186;6.830;2022-12-07T07:21:18;69.27;;;49.73;;
45676;SDS011;31390;51.186;6.830;2022-12-07T07:23:45;87.23;;;54.90;;
45676;SDS011;31390;51.186;6.830;2022-12-07T07:26:11;58.03;;;45.40;;
45676;SDS011;31390;51.186;6.830;2022-12-07T07:28:38;72.13;;;48.43;;
45676;SDS011;31390;51.186;6.830;2022-12-07T07:31:05;54.00;;;43.40;;
45676;SDS011;31390;51.186;6.830;2022-12-07T07:33:33;116.37;;;63.43;;
45676;SDS011;31390;51.186;6.830;2022-12-07T07:36:01;68.47;;;48.53;;
45676;SDS011;31390;51.186;6.830;2022-12-07T07:38:28;87.83;;;51.67;;
45676;SDS011;31390;51.186;6.830;2022-12-07T07:40:58;77.70;;;51.17;;
45676;SDS011;31390;51.186;6.830;2022-12-07T07:43:27;50.93;;;39.70;;
45676;SDS011;31390;51.186;6.830;2022-12-07T07:45:53;75.67;;;47.00;;
45676;SDS011;31390;51.186;6.830;2022-12-07T07:48:20;71.93;;;47.20;;
45676;SDS011;31390;51.186;6.830;2022-12-07T07:50:49;80.00;;;50.20;;
45676;SDS011;31390;51.186;6.830;2022-12-07T07:53:15;73.93;;;48.33;;
45676;SDS011;31390;51.186;6.830;2022-12-07T07:55:50;98.03;;;56.30;;
45676;SDS011;31390;51.186;6.830;2022-12-07T07:58:20;63.97;;;43.90;;
45676;SDS011;31390;51.186;6.830;2022-12-07T08:00:46;108.50;;;61.33;;
45676;SDS011;31390;51.186;6.830;2022-12-07T08:03:13;124.60;;;63.83;;
45676;SDS011;31390;51.186;6.830;2022-12-07T08:05:40;68.27;;;45.23;;
45676;SDS011;31390;51.186;6.830;2022-12-07T08:08:08;71.10;;;44.90;;
45676;SDS011;31390;51.186;6.830;2022-12-07T08:10:38;102.10;;;54.43;;
45676;SDS011;31390;51.186;6.830;2022-12-07T08:13:06;55.47;;;38.67;;
45676;SDS011;31390;51.186;6.830;2022-12-07T08:15:40;57.40;;;39.00;;
45676;SDS011;31390;51.186;6.830;2022-12-07T08:18:07;72.43;;;43.23;;
45676;SDS011;31390;51.186;6.830;2022-12-07T08:20:36;91.43;;;51.37;;
45676;SDS011;31390;51.186;6.830;2022-12-07T08:23:04;71.37;;;44.50;;
45676;SDS011;31390;51.186;6.830;2022-12-07T08:25:31;73.27;;;44.90;;
45676;SDS011;31390;51.186;6.830;2022-12-07T08:27:57;110.57;;;60.67;;
45676;SDS011;31390;51.186;6.830;2022-12-07T08:30:24;55.27;;;37.57;;
45676;SDS011;31390;51.186;6.830;2022-12-07T08:32:51;56.67;;;39.57;;
45676;SDS011;31390;51.186;6.830;2022-12-07T08:35:17;91.97;;;51.90;;
45676;SDS011;31390;51.186;6.830;2022-12-07T08:37:44;75.37;;;48.70;;
45676;SDS011;31390;51.186;6.830;2022-12-07T08:40:11;101.50;;;56.37;;
45676;SDS011;31390;51.186;6.830;2022-12-07T08:42:43;49.50;;;36.70;;
45676;SDS011;31390;51.186;6.830;2022-12-07T08:45:12;62.10;;;42.60;;
45676;SDS011;31390;51.186;6.830;2022-12-07T08:47:47;70.50;;;47.60;;
45676;SDS011;31390;51.186;6.830;2022-12-07T08:50:17;57.20;;;40.53;;
45676;SDS011;31390;51.186;6.830;2022-12-07T08:52:44;69.33;;;41.53;;
45676;SDS011;31390;51.186;6.830;2022-12-07T08:55:13;72.73;;;46.33;;
45676;SDS011;31390;51.186;6.830;2022-12-07T08:57:40;60.90;;;41.97;;
45676;SDS011;31390;51.186;6.830;2022-12-07T09:00:15;60.77;;;41.03;;
45676;SDS011;31390;51.186;6.830;2022-12-07T09:03:37;49.50;;;36.07;;
45676;SDS011;31390;51.186;6.830;2022-12-07T09:06:05;44.10;;;34.27;;
45676;SDS011;31390;51.186;6.830;2022-12-07T09:08:36;89.77;;;49.97;;
45676;SDS011;31390;51.186;6.830;2022-12-07T09:11:05;73.90;;;47.17;;
45676;SDS011;31390;51.186;6.830;2022-12-07T09:13:35;80.63;;;49.93;;
45676;SDS011;31390;51.186;6.830;2022-12-07T09:16:01;65.60;;;44.60;;
45676;SDS011;31390;51.186;6.830;2022-12-07T09:18:28;91.53;;;53.50;;
45676;SDS011;31390;51.186;6.830;2022-12-07T09:20:55;83.20;;;50.40;;
45676;SDS011;31390;51.186;6.830;2022-12-07T09:23:22;65.57;;;44.43;;
45676;SDS011;31390;51.186;6.830;2022-12-07T09:25:49;61.80;;;43.00;;
45676;SDS011;31390;51.186;6.830;2022-12-07T09:28:16;46.83;;;38.50;;
45676;SDS011;31390;51.186;6.830;2022-12-07T09:30:46;42.63;;;35.03;;
45676;SDS011;31390;51.186;6.830;2022-12-07T09:33:33;47.63;;;33.00;;
45676;SDS011;31390;51.186;6.830;2022-12-07T09:36:00;36.63;;;29.53;;
45676;SDS011;31390;51.186;6.830;2022-12-07T09:38:26;44.93;;;34.60;;
45676;SDS011;31390;51.186;6.830;2022-12-07T09:40:56;55.00;;;39.90;;
45676;SDS011;31390;51.186;6.830;2022-12-07T09:43:25;40.63;;;31.27;;
45676;SDS011;31390;51.186;6.830;2022-12-07T09:45:53;47.03;;;33.60;;
45676;SDS011;31390;51.186;6.830;2022-12-07T09:48:30;44.80;;;33.10;;
45676;SDS011;31390;51.186;6.830;2022-12-07T09:51:00;28.40;;;25.27;;
45676;SDS011;31390;51.186;6.830;2022-12-07T09:53:31;45.77;;;32.20;;
45676;SDS011;31390;51.186;6.830;2022-12-07T09:55:59;43.13;;;32.37;;
45676;SDS011;31390;51.186;6.830;2022-12-07T09:58:29;35.63;;;29.27;;
45676;SDS011;31390;51.186;6.830;2022-12-07T10:01:00;48.87;;;33.10;;
45676;SDS011;31390;51.186;6.830;2022-12-07T10:03:30;37.87;;;28.50;;
45676;SDS011;31390;51.186;6.830;2022-12-07T10:06:01;41.50;;;31.13;;
45676;SDS011;31390;51.186;6.830;2022-12-07T10:08:27;41.17;;;31.23;;
45676;SDS011;31390;51.186;6.830;2022-12-07T10:10:55;47.53;;;30.35;;
45676;SDS011;31390;51.186;6.830;2022-12-07T10:13:35;40.97;;;29.87;;
45676;SDS011;31390;51.186;6.830;2022-12-07T10:16:02;32.97;;;25.23;;
45676;SDS011;31390;51.186;6.830;2022-12-07T10:18:33;33.07;;;26.50;;
45676;SDS011;31390;51.186;6.830;2022-12-07T10:21:25;26.20;;;21.97;;
45676;SDS011;31390;51.186;6.830;2022-12-07T10:29:14;28.23;;;23.57;;
45676;SDS011;31390;51.186;6.830;2022-12-07T10:31:41;38.33;;;26.02;;
45676;SDS011;31390;51.186;6.830;2022-12-07T10:34:23;32.53;;;23.97;;
45676;SDS011;31390;51.186;6.830;2022-12-07T10:39:44;20.20;;;15.53;;
45676;SDS011;31390;51.186;6.830;2022-12-07T10:42:21;24.20;;;18.77;;
45676;SDS011;31390;51.186;6.830;2022-12-07T10:44:49;24.77;;;17.85;;
45676;SDS011;31390;51.186;6.830;2022-12-07T10:52:26;27.30;;;18.47;;
45676;SDS011;31390;51.186;6.830;2022-12-07T10:57:39;21.60;;;16.97;;
45676;SDS011;31390;51.186;6.830;2022-12-07T11:00:13;28.93;;;18.73;;
45676;SDS011;31390;51.186;6.830;2022-12-07T11:10:30;22.65;;;15.65;;
45676;SDS011;31390;51.186;6.830;2022-12-07T11:13:14;19.63;;;14.88;;
45676;SDS011;31390;51.186;6.830;2022-12-07T11:15:49;20.37;;;14.60;;
45676;SDS011;31390;51.186;6.830;2022-12-07T11:18:35;17.40;;;12.67;;
45676;SDS011;31390;51.186;6.830;2022-12-07T11:26:01;14.70;;;8.60;;
45676;SDS011;31390;51.186;6.830;2022-12-07T11:28:41;17.80;;;11.73;;
45676;SDS011;31390;51.186;6.830;2022-12-07T11:36:42;11.68;;;8.38;;
45676;SDS011;31390;51.186;6.830;2022-12-07T11:39:33;16.83;;;10.53;;
45676;SDS011;31390;51.186;6.830;2022-12-07T11:42:00;13.27;;;8.52;;
45676;SDS011;31390;51.186;6.830;2022-12-07T11:44:33;16.00;;;8.75;;
45676;SDS011;31390;51.186;6.830;2022-12-07T11:47:05;16.07;;;10.53;;
45676;SDS011;31390;51.186;6.830;2022-12-07T11:52:21;16.90;;;10.45;;
45676;SDS011;31390;51.186;6.830;2022-12-07T11:54:49;11.13;;;7.57;;
45676;SDS011;31390;51.186;6.830;2022-12-07T11:57:18;13.52;;;8.95;;
45676;SDS011;31390;51.186;6.830;2022-12-07T11:59:48;14.90;;;10.07;;
45676;SDS011;31390;51.186;6.830;2022-12-07T12:02:18;14.40;;;8.10;;
45676;SDS011;31390;51.186;6.830;2022-12-07T12:04:59;15.13;;;10.90;;
45676;SDS011;31390;51.186;6.830;2022-12-07T12:07:28;14.18;;;10.35;;
45676;SDS011;31390;51.186;6.830;2022-12-07T12:12:45;14.18;;;11.00;;
45676;SDS011;31390;51.186;6.830;2022-12-07T12:20:36;15.32;;;12.85;;
45676;SDS011;31390;51.186;6.830;2022-12-07T12:23:26;20.85;;;14.77;;
45676;SDS011;31390;51.186;6.830;2022-12-07T12:25:56;17.77;;;15.85;;
45676;SDS011;31390;51.186;6.830;2022-12-07T12:31:04;11.30;;;8.70;;
45676;SDS011;31390;51.186;6.830;2022-12-07T12:33:31;14.75;;;7.90;;
45676;SDS011;31390;51.186;6.830;2022-12-07T12:44:02;11.70;;;7.60;;
45676;SDS011;31390;51.186;6.830;2022-12-07T12:46:36;13.52;;;7.50;;
45676;SDS011;31390;51.186;6.830;2022-12-07T12:51:57;13.10;;;7.90;;
45676;SDS011;31390;51.186;6.830;2022-12-07T12:54:28;9.25;;;7.07;;
45676;SDS011;31390;51.186;6.830;2022-12-07T12:59:26;14.80;;;7.65;;
45676;SDS011;31390;51.186;6.830;2022-12-07T13:01:56;12.50;;;7.13;;
45676;SDS011;31390;51.186;6.830;2022-12-07T13:04:24;10.80;;;5.43;;
45676;SDS011;31390;51.186;6.830;2022-12-07T13:06:53;9.40;;;5.68;;
45676;SDS011;31390;51.186;6.830;2022-12-07T13:09:21;9.80;;;5.63;;
45676;SDS011;31390;51.186;6.830;2022-12-07T13:11:54;10.32;;;5.20;;
45676;SDS011;31390;51.186;6.830;2022-12-07T13:17:11;11.10;;;6.45;;
45676;SDS011;31390;51.186;6.830;2022-12-07T13:25:12;12.73;;;6.72;;
45676;SDS011;31390;51.186;6.830;2022-12-07T13:27:40;10.52;;;5.97;;
45676;SDS011;31390;51.186;6.830;2022-12-07T13:30:18;11.02;;;6.78;;
45676;SDS011;31390;51.186;6.830;2022-12-07T13:32:52;11.10;;;7.10;;
45676;SDS011;31390;51.186;6.830;2022-12-07T13:35:33;8.88;;;5.47;;
45676;SDS011;31390;51.186;6.830;2022-12-07T13:38:02;10.75;;;5.88;;
45676;SDS011;31390;51.186;6.830;2022-12-07T13:40:31;9.25;;;6.63;;
45676;SDS011;31390;51.186;6.830;2022-12-07T13:42:59;9.20;;;6.25;;
45676;SDS011;31390;51.186;6.830;2022-12-07T13:45:31;14.73;;;6.68;;
45676;SDS011;31390;51.186;6.830;2022-12-07T13:48:32;10.93;;;6.77;;
45676;SDS011;31390;51.186;6.830;2022-12-07T13:51:01;11.27;;;6.65;;
45676;SDS011;31390;51.186;6.830;2022-12-07T13:53:28;8.32;;;5.60;;
45676;SDS011;31390;51.186;6.830;2022-12-07T13:55:57;8.82;;;6.03;;
45676;SDS011;31390;51.186;6.830;2022-12-07T13:58:25;10.95;;;5.65;;
45676;SDS011;31390;51.186;6.830;2022-12-07T14:00:52;10.73;;;6.50;;
45676;SDS011;31390;51.186;6.830;2022-12-07T14:03:30;14.63;;;6.50;;
45676;SDS011;31390;51.186;6.830;2022-12-07T14:06:05;8.65;;;5.47;;
45676;SDS011;31390;51.186;6.830;2022-12-07T14:08:33;11.52;;;5.32;;
45676;SDS011;31390;51.186;6.830;2022-12-07T14:11:00;10.98;;;5.60;;
45676;SDS011;31390;51.186;6.830;2022-12-07T14:13:31;8.75;;;5.97;;
45676;SDS011;31390;51.186;6.830;2022-12-07T14:15:58;8.00;;;4.37;;
45676;SDS011;31390;51.186;6.830;2022-12-07T14:18:38;8.73;;;4.20;;
45676;SDS011;31390;51.186;6.830;2022-12-07T14:21:06;8.98;;;5.55;;
45676;SDS011;31390;51.186;6.830;2022-12-07T14:23:33;8.83;;;4.50;;
45676;SDS011;31390;51.186;6.830;2022-12-07T14:26:10;7.75;;;4.70;;
45676;SDS011;31390;51.186;6.830;2022-12-07T14:28:40;8.88;;;5.32;;
45676;SDS011;31390;51.186;6.830;2022-12-07T14:31:12;7.50;;;5.20;;
45676;SDS011;31390;51.186;6.830;2022-12-07T14:33:50;7.60;;;4.95;;
45676;SDS011;31390;51.186;6.830;2022-12-07T14:36:16;9.07;;;5.30;;
45676;SDS011;31390;51.186;6.830;2022-12-07T14:38:43;13.68;;;6.18;;
45676;SDS011;31390;51.186;6.830;2022-12-07T14:41:12;11.70;;;6.70;;
45676;SDS011;31390;51.186;6.830;2022-12-07T14:43:59;10.70;;;7.90;;
45676;SDS011;31390;51.186;6.830;2022-12-07T14:46:46;11.88;;;7.53;;
45676;SDS011;31390;51.186;6.830;2022-12-07T14:49:13;11.55;;;7.10;;
45676;SDS011;31390;51.186;6.830;2022-12-07T14:52:00;16.35;;;8.23;;
45676;SDS011;31390;51.186;6.830;2022-12-07T14:54:46;11.02;;;6.07;;
45676;SDS011;31390;51.186;6.830;2022-12-07T14:57:13;11.05;;;7.07;;
45676;SDS011;31390;51.186;6.830;2022-12-07T14:59:39;11.57;;;8.02;;
45676;SDS011;31390;51.186;6.830;2022-12-07T15:02:13;9.00;;;6.85;;
45676;SDS011;31390;51.186;6.830;2022-12-07T15:04:40;7.47;;;6.60;;
45676;SDS011;31390;51.186;6.830;2022-12-07T15:07:13;10.20;;;6.50;;
45676;SDS011;31390;51.186;6.830;2022-12-07T15:09:41;10.80;;;7.00;;
45676;SDS011;31390;51.186;6.830;2022-12-07T15:12:07;12.80;;;7.23;;
45676;SDS011;31390;51.186;6.830;2022-12-07T15:14:34;14.93;;;8.33;;
45676;SDS011;31390;51.186;6.830;2022-12-07T15:17:00;11.57;;;7.10;;
45676;SDS011;31390;51.186;6.830;2022-12-07T15:19:42;9.85;;;7.18;;
45676;SDS011;31390;51.186;6.830;2022-12-07T15:22:08;13.20;;;8.30;;
45676;SDS011;31390;51.186;6.830;2022-12-07T15:24:37;12.87;;;8.27;;
45676;SDS011;31390;51.186;6.830;2022-12-07T15:27:03;9.00;;;7.40;;
45676;SDS011;31390;51.186;6.830;2022-12-07T15:29:30;9.93;;;7.57;;
45676;SDS011;31390;51.186;6.830;2022-12-07T15:31:56;11.87;;;8.73;;
45676;SDS011;31390;51.186;6.830;2022-12-07T15:34:24;14.40;;;9.27;;
45676;SDS011;31390;51.186;6.830;2022-12-07T15:36:51;13.50;;;9.13;;
45676;SDS011;31390;51.186;6.830;2022-12-07T15:39:18;14.13;;;11.40;;
45676;SDS011;31390;51.186;6.830;2022-12-07T15:41:44;16.20;;;11.70;;
45676;SDS011;31390;51.186;6.830;2022-12-07T15:44:11;19.90;;;13.47;;
45676;SDS011;31390;51.186;6.830;2022-12-07T15:46:56;19.83;;;14.17;;
45676;SDS011;31390;51.186;6.830;2022-12-07T15:49:23;21.97;;;15.83;;
45676;SDS011;31390;51.186;6.830;2022-12-07T15:51:50;17.75;;;13.00;;
45676;SDS011;31390;51.186;6.830;2022-12-07T15:54:20;19.20;;;15.00;;
45676;SDS011;31390;51.186;6.830;2022-12-07T15:56:47;21.33;;;14.23;;
45676;SDS011;31390;51.186;6.830;2022-12-07T15:59:14;20.85;;;15.82;;
45676;SDS011;31390;51.186;6.830;2022-12-07T16:01:40;17.03;;;13.77;;
45676;SDS011;31390;51.186;6.830;2022-12-07T16:04:07;19.53;;;13.57;;
45676;SDS011;31390;51.186;6.830;2022-12-07T16:06:34;12.70;;;10.20;;
45676;SDS011;31390;51.186;6.830;2022-12-07T16:09:00;14.60;;;9.77;;
45676;SDS011;31390;51.186;6.830;2022-12-07T16:11:27;12.43;;;9.13;;
45676;SDS011;31390;51.186;6.830;2022-12-07T16:13:54;12.60;;;9.47;;
45676;SDS011;31390;51.186;6.830;2022-12-07T16:16:20;11.97;;;9.77;;
45676;SDS011;31390;51.186;6.830;2022-12-07T16:18:49;13.83;;;11.40;;